Time;durP1;ratioP1;P1;durP2;ratioP2;P2;SDS_P1;SDS_P2;PMS_P1;PMS_P2;Temp;Humidity;BMP_temperature;BMP_pressure;BME280_temperature;BME280_humidity;BME280_pressure;Samples;Min_cycle;Max_cycle;Signal;HPM_P1;HPM_P2
2022/09/29 00:01:22;;;;;;;8.40;4.47;;;9.00;93.10;;;;;;5001705;28;20530;-71
2022/09/29 00:03:48;;;;;;;11.90;5.57;;;9.00;93.00;;;;;;5006643;28;20831;-70
2022/09/29 00:06:17;;;;;;;7.53;4.90;;;8.90;93.00;;;;;;5007228;28;20178;-69
2022/09/29 00:08:43;;;;;;;9.83;4.67;;;8.90;93.10;;;;;;4991271;28;20499;-70
2022/09/29 00:11:12;;;;;;;7.50;4.47;;;8.90;93.10;;;;;;5002121;28;20421;-69
2022/09/29 00:13:38;;;;;;;8.77;4.90;;;8.90;93.20;;;;;;4991459;28;20433;-70
2022/09/29 00:16:03;;;;;;;10.80;5.13;;;8.90;93.20;;;;;;4999733;28;20425;-69
2022/09/29 00:18:30;;;;;;;7.60;4.43;;;9.00;93.20;;;;;;5001321;28;20213;-70
2022/09/29 00:20:58;;;;;;;8.80;5.23;;;9.00;93.00;;;;;;4997829;28;20640;-70
2022/09/29 00:23:25;;;;;;;8.57;5.00;;;9.00;93.10;;;;;;4996251;28;20468;-70
2022/09/29 00:26:08;;;;;;;9.23;4.97;;;9.10;93.00;;;;;;5003145;28;20425;-70
2022/09/29 00:28:35;;;;;;;7.40;4.20;;;9.20;92.80;;;;;;5006202;28;20452;-69
2022/09/29 00:31:02;;;;;;;8.17;5.10;;;9.20;92.70;;;;;;5005674;28;20421;-71
2022/09/29 00:33:32;;;;;;;6.97;4.27;;;9.10;92.60;;;;;;5005076;28;20432;-70
2022/09/29 00:36:18;;;;;;;8.33;4.70;;;9.10;92.60;;;;;;5007104;28;20938;-71
2022/09/29 00:38:46;;;;;;;7.37;4.83;;;9.20;92.80;;;;;;4983912;28;20477;-70
2022/09/29 00:41:33;;;;;;;8.50;4.20;;;9.30;92.70;;;;;;4998310;28;20482;-70
2022/09/29 00:44:05;;;;;;;10.90;4.93;;;9.40;92.50;;;;;;4997216;28;20414;-70
2022/09/29 00:46:37;;;;;;;10.90;5.10;;;9.40;92.30;;;;;;5003494;28;20417;-70
2022/09/29 00:49:30;;;;;;;6.63;4.83;;;9.40;92.30;;;;;;5005225;28;20417;-71
2022/09/29 00:52:04;;;;;;;6.17;4.23;;;9.40;92.20;;;;;;5002960;28;20549;-70
2022/09/29 00:54:37;;;;;;;7.40;4.90;;;9.50;92.10;;;;;;5008038;28;20419;-70
2022/09/29 00:57:05;;;;;;;8.67;4.13;;;9.40;92.00;;;;;;5003352;28;20467;-69
2022/09/29 00:59:58;;;;;;;6.30;4.60;;;9.30;92.10;;;;;;5009153;28;20519;-70
2022/09/29 01:02:25;;;;;;;8.03;4.47;;;9.40;92.20;;;;;;4988004;28;20423;-70
2022/09/29 01:04:53;;;;;;;7.60;4.30;;;9.30;92.20;;;;;;5006810;28;20939;-70
2022/09/29 01:07:23;;;;;;;6.00;4.30;;;9.30;92.30;;;;;;5008739;28;20588;-70
2022/09/29 01:09:52;;;;;;;8.40;4.20;;;9.50;92.20;;;;;;5004133;28;20417;-69
2022/09/29 01:12:18;;;;;;;12.83;4.70;;;9.50;92.10;;;;;;5004424;28;20420;-69
2022/09/29 01:14:45;;;;;;;14.70;4.60;;;9.40;92.00;;;;;;5012956;28;20425;-70
2022/09/29 01:17:11;;;;;;;6.83;4.30;;;9.40;92.00;;;;;;5005019;28;20230;-70
2022/09/29 01:20:03;;;;;;;7.50;4.60;;;9.40;92.10;;;;;;5005738;28;20445;-69
2022/09/29 01:22:59;;;;;;;6.43;3.87;;;9.40;92.10;;;;;;5001139;28;20187;-70
2022/09/29 01:25:37;;;;;;;7.40;4.30;;;9.50;92.10;;;;;;5006615;28;20456;-70
2022/09/29 01:28:40;;;;;;;5.77;3.80;;;9.60;91.90;;;;;;5012211;28;20814;-69
2022/09/29 01:31:40;;;;;;;7.57;3.93;;;9.60;91.70;;;;;;5004000;28;20413;-68
2022/09/29 01:34:21;;;;;;;6.23;4.67;;;9.60;91.40;;;;;;4978455;28;20426;-68
2022/09/29 01:37:06;;;;;;;7.27;3.90;;;9.60;91.20;;;;;;5003738;28;20452;-69
2022/09/29 01:39:57;;;;;;;7.43;3.27;;;9.60;91.20;;;;;;5003965;28;20976;-70
2022/09/29 01:42:46;;;;;;;4.77;3.80;;;9.60;91.40;;;;;;4988735;28;20421;-70
2022/09/29 01:45:20;;;;;;;5.70;4.10;;;9.50;91.40;;;;;;5008313;28;20460;-70
2022/09/29 01:47:52;;;;;;;7.33;4.20;;;9.50;91.80;;;;;;5007365;28;20455;-69
2022/09/29 01:50:23;;;;;;;10.00;5.10;;;9.50;91.80;;;;;;5005059;28;20419;-69
2022/09/29 01:52:56;;;;;;;7.83;3.73;;;9.50;91.80;;;;;;5009658;28;20416;-69
2022/09/29 01:55:25;;;;;;;7.83;4.17;;;9.40;91.90;;;;;;5004962;28;21047;-70
2022/09/29 01:58:03;;;;;;;6.17;4.43;;;9.60;92.00;;;;;;5008775;28;20603;-70
2022/09/29 02:00:34;;;;;;;5.60;3.70;;;9.60;91.70;;;;;;5007257;28;20412;-70
2022/09/29 02:03:10;;;;;;;5.87;4.00;;;9.60;91.70;;;;;;4990823;28;20425;-70
2022/09/29 02:05:38;;;;;;;9.13;4.23;;;9.60;91.70;;;;;;5007555;28;20414;-69
2022/09/29 02:08:35;;;;;;;6.50;4.37;;;9.70;91.70;;;;;;5007616;28;20510;-70
2022/09/29 02:11:07;;;;;;;5.60;3.83;;;9.60;91.60;;;;;;5003837;28;20517;-69
2022/09/29 02:13:49;;;;;;;9.13;5.10;;;9.50;91.80;;;;;;5010784;28;21012;-70
2022/09/29 02:16:18;;;;;;;7.60;4.60;;;9.50;92.00;;;;;;5009585;28;20465;-70
2022/09/29 02:18:55;;;;;;;6.30;3.90;;;9.50;92.20;;;;;;5010046;28;20480;-70
2022/09/29 02:21:22;;;;;;;4.20;3.40;;;9.40;92.10;;;;;;5005270;28;20441;-70
2022/09/29 02:23:48;;;;;;;6.60;3.73;;;9.50;92.30;;;;;;5009331;28;20486;-71
2022/09/29 02:26:14;;;;;;;6.50;4.27;;;9.60;92.20;;;;;;4995746;28;20413;-70
2022/09/29 02:28:41;;;;;;;6.17;4.10;;;9.70;92.00;;;;;;5006513;28;20582;-71
2022/09/29 02:31:07;;;;;;;6.47;4.00;;;9.70;91.80;;;;;;5002690;28;20186;-69
2022/09/29 02:33:33;;;;;;;10.40;4.50;;;9.70;91.80;;;;;;5010605;28;20425;-70
2022/09/29 02:36:11;;;;;;;6.77;4.13;;;9.60;91.90;;;;;;5006394;28;20498;-70
2022/09/29 02:38:37;;;;;;;6.50;3.73;;;9.60;92.00;;;;;;5006519;28;20441;-70
2022/09/29 02:41:46;;;;;;;7.00;3.90;;;9.70;92.20;;;;;;5009858;28;20520;-69
2022/09/29 02:44:48;;;;;;;10.03;4.77;;;9.70;92.10;;;;;;5006176;28;20265;-71
2022/09/29 02:47:41;;;;;;;6.83;4.17;;;9.70;92.10;;;;;;5010743;28;20452;-71
2022/09/29 02:50:22;;;;;;;11.37;4.70;;;9.60;92.00;;;;;;5010565;28;20486;-70
2022/09/29 02:53:18;;;;;;;7.80;3.93;;;9.80;92.00;;;;;;5008578;28;20883;-70
2022/09/29 02:55:56;;;;;;;8.50;4.20;;;9.90;91.70;;;;;;5008382;28;20474;-70
2022/09/29 02:59:02;;;;;;;5.80;3.37;;;10.00;91.40;;;;;;5010214;28;20480;-70
2022/09/29 03:01:32;;;;;;;5.57;3.87;;;10.00;91.20;;;;;;4931974;28;20435;-70
2022/09/29 03:03:59;;;;;;;4.90;3.50;;;9.90;91.00;;;;;;5009226;28;20849;-70
2022/09/29 03:06:26;;;;;;;5.50;3.40;;;9.90;90.90;;;;;;5003034;28;20807;-70
2022/09/29 03:08:51;;;;;;;6.43;3.60;;;9.90;91.00;;;;;;5004547;28;20437;-69
2022/09/29 03:11:17;;;;;;;10.83;4.40;;;9.90;91.10;;;;;;4987764;28;20936;-70
2022/09/29 03:13:43;;;;;;;7.33;4.13;;;9.90;91.10;;;;;;5002479;28;20182;-70
2022/09/29 03:16:08;;;;;;;8.10;3.83;;;9.90;91.10;;;;;;4987490;28;20178;-71
2022/09/29 03:18:34;;;;;;;5.00;3.60;;;9.90;91.10;;;;;;5008180;28;20304;-70
2022/09/29 03:20:59;;;;;;;8.03;3.97;;;9.90;91.30;;;;;;5003666;28;20206;-70
2022/09/29 03:23:25;;;;;;;5.80;3.40;;;9.90;91.20;;;;;;5007453;28;20216;-70
2022/09/29 03:25:51;;;;;;;5.90;3.43;;;9.80;91.10;;;;;;5009196;28;20703;-69
2022/09/29 03:28:16;;;;;;;7.07;3.80;;;9.80;91.40;;;;;;5008595;28;20460;-69
2022/09/29 03:30:43;;;;;;;8.93;3.83;;;9.70;91.70;;;;;;4993980;28;20181;-70
2022/09/29 03:33:10;;;;;;;5.87;3.50;;;9.60;91.90;;;;;;5010527;28;20534;-70
2022/09/29 03:35:35;;;;;;;4.97;3.87;;;9.60;92.40;;;;;;5011487;28;20987;-69
2022/09/29 03:38:01;;;;;;;5.77;3.60;;;9.60;92.50;;;;;;5004647;28;20559;-70
2022/09/29 03:40:27;;;;;;;7.83;4.50;;;9.60;92.50;;;;;;5005073;28;20713;-70
2022/09/29 03:42:52;;;;;;;4.57;4.10;;;9.60;92.50;;;;;;5006837;28;20205;-70
2022/09/29 03:45:18;;;;;;;7.70;3.90;;;9.50;92.60;;;;;;5007105;28;20414;-69
2022/09/29 03:47:44;;;;;;;6.90;4.07;;;9.40;92.80;;;;;;5010281;28;20218;-71
2022/09/29 03:50:09;;;;;;;7.50;3.83;;;9.30;92.90;;;;;;5008775;28;20213;-71
2022/09/29 03:52:35;;;;;;;5.50;3.40;;;9.20;93.20;;;;;;5011764;28;20268;-69
2022/09/29 03:55:01;;;;;;;8.43;4.43;;;9.30;93.30;;;;;;5010153;28;20557;-69
2022/09/29 03:57:26;;;;;;;9.93;3.87;;;9.10;93.20;;;;;;5011057;28;20275;-70
2022/09/29 03:59:52;;;;;;;5.20;3.80;;;9.20;93.50;;;;;;5010948;28;20184;-69
2022/09/29 04:02:19;;;;;;;8.70;4.20;;;9.20;93.50;;;;;;5007259;28;20259;-71
2022/09/29 04:04:45;;;;;;;7.63;3.30;;;9.20;93.40;;;;;;5012450;28;20722;-69
2022/09/29 04:07:11;;;;;;;5.90;4.00;;;9.10;93.40;;;;;;5010015;28;20457;-71
2022/09/29 04:09:37;;;;;;;9.43;4.23;;;9.00;93.50;;;;;;5006495;28;20185;-70
2022/09/29 04:12:03;;;;;;;9.53;4.17;;;9.00;93.60;;;;;;5002540;28;20919;-69
2022/09/29 04:14:28;;;;;;;6.37;4.10;;;9.00;93.70;;;;;;5006828;28;20433;-70
2022/09/29 04:16:54;;;;;;;8.80;3.93;;;8.90;93.80;;;;;;5004565;28;20480;-70
2022/09/29 04:19:19;;;;;;;8.57;4.57;;;8.90;93.80;;;;;;5004863;28;20236;-70
2022/09/29 04:21:45;;;;;;;6.47;4.10;;;8.80;94.00;;;;;;5005415;28;20197;-70
2022/09/29 04:24:11;;;;;;;7.83;4.90;;;8.70;94.10;;;;;;5007225;28;20322;-71
2022/09/29 04:26:36;;;;;;;9.50;4.70;;;8.70;94.30;;;;;;5008331;28;20185;-69
2022/09/29 04:29:02;;;;;;;8.50;4.70;;;8.70;94.40;;;;;;5001322;28;20897;-71
2022/09/29 04:31:28;;;;;;;7.73;4.20;;;8.70;94.50;;;;;;5009542;28;20190;-72
2022/09/29 04:33:53;;;;;;;8.87;4.17;;;8.70;94.50;;;;;;5013442;28;20440;-75
2022/09/29 04:36:19;;;;;;;8.07;3.97;;;8.70;94.60;;;;;;5014451;28;20178;-76
2022/09/29 04:38:44;;;;;;;9.80;4.17;;;8.70;94.60;;;;;;5010395;28;20217;-76
2022/09/29 04:41:10;;;;;;;5.57;3.40;;;8.70;94.60;;;;;;5001860;28;20645;-72
2022/09/29 04:43:36;;;;;;;6.97;4.23;;;8.70;94.60;;;;;;5010348;28;20177;-73
2022/09/29 04:46:06;;;;;;;7.13;3.90;;;8.60;94.50;;;;;;5011896;28;20174;-72
2022/09/29 04:48:33;;;;;;;7.93;3.93;;;8.60;94.60;;;;;;4985518;28;20216;-72
2022/09/29 04:50:58;;;;;;;7.07;3.83;;;8.50;94.80;;;;;;5011570;28;20425;-73
2022/09/29 04:53:24;;;;;;;10.90;4.90;;;8.50;94.80;;;;;;5010879;28;20428;-72
2022/09/29 04:55:49;;;;;;;8.40;4.43;;;8.50;95.10;;;;;;5008931;28;20200;-71
2022/09/29 04:58:15;;;;;;;10.00;5.43;;;8.60;95.20;;;;;;5008260;28;20225;-72
2022/09/29 05:00:40;;;;;;;9.77;5.50;;;8.60;95.10;;;;;;5004397;28;20220;-72
2022/09/29 05:03:06;;;;;;;9.33;5.73;;;8.50;95.00;;;;;;5012362;28;20584;-70
2022/09/29 05:05:31;;;;;;;10.03;4.70;;;8.50;95.00;;;;;;5016856;28;20296;-73
2022/09/29 05:07:58;;;;;;;9.70;4.70;;;8.30;94.90;;;;;;4989005;28;20225;-71
2022/09/29 05:10:27;;;;;;;5.07;4.13;;;8.30;95.10;;;;;;5010232;28;20188;-73
2022/09/29 05:12:52;;;;;;;7.87;4.80;;;8.30;95.40;;;;;;4987512;28;20438;-72
2022/09/29 05:15:18;;;;;;;8.40;4.50;;;8.40;95.30;;;;;;5009969;28;20431;-72
2022/09/29 05:17:44;;;;;;;11.33;5.27;;;8.30;95.20;;;;;;5013749;28;20301;-71
2022/09/29 05:20:10;;;;;;;9.77;5.30;;;8.20;95.20;;;;;;5008333;28;20476;-72
2022/09/29 05:22:36;;;;;;;9.10;5.77;;;8.20;95.30;;;;;;5014629;28;20417;-73
2022/09/29 05:25:02;;;;;;;10.30;5.10;;;8.20;95.50;;;;;;5012413;28;20778;-72
2022/09/29 05:27:28;;;;;;;10.93;5.53;;;8.20;95.60;;;;;;5010221;28;20463;-71
2022/09/29 05:29:53;;;;;;;13.83;6.30;;;8.30;95.80;;;;;;5005311;28;20265;-72
2022/09/29 05:32:19;;;;;;;14.83;7.10;;;8.40;95.90;;;;;;4989132;28;20190;-71
2022/09/29 05:34:44;;;;;;;9.70;5.23;;;8.40;95.80;;;;;;5003909;28;20186;-73
2022/09/29 05:37:10;;;;;;;10.40;5.20;;;8.40;95.80;;;;;;5002886;28;20684;-73
2022/09/29 05:39:36;;;;;;;8.97;6.03;;;8.50;95.70;;;;;;5006788;28;20201;-73
2022/09/29 05:42:05;;;;;;;7.73;5.50;;;8.50;95.70;;;;;;5001952;28;20505;-72
2022/09/29 05:44:31;;;;;;;10.73;6.10;;;8.50;95.60;;;;;;5008098;28;20807;-70
2022/09/29 05:46:56;;;;;;;7.73;5.23;;;8.50;95.50;;;;;;5002384;28;20547;-72
2022/09/29 05:49:22;;;;;;;8.50;5.30;;;8.50;95.40;;;;;;5000599;28;20279;-73
2022/09/29 05:51:47;;;;;;;7.67;5.50;;;8.50;95.50;;;;;;5005998;28;20293;-72
2022/09/29 05:54:13;;;;;;;13.67;6.00;;;8.50;95.40;;;;;;4990789;28;20197;-72
2022/09/29 05:56:38;;;;;;;10.97;5.63;;;8.60;95.30;;;;;;4989379;28;20186;-73
2022/09/29 05:59:04;;;;;;;10.10;4.80;;;8.60;95.10;;;;;;4990195;28;20210;-71
2022/09/29 06:01:31;;;;;;;8.17;5.00;;;8.60;94.70;;;;;;5003832;28;20198;-73
2022/09/29 06:03:56;;;;;;;14.77;4.77;;;8.60;94.50;;;;;;5005476;28;20190;-74
2022/09/29 06:06:25;;;;;;;6.90;5.23;;;8.70;94.50;;;;;;5005154;28;20495;-75
2022/09/29 06:08:51;;;;;;;9.53;5.50;;;8.70;94.40;;;;;;5009499;28;20656;-73
2022/09/29 06:11:19;;;;;;;8.87;5.53;;;8.70;94.30;;;;;;5000288;28;20424;-72
2022/09/29 06:13:47;;;;;;;10.77;5.57;;;8.70;94.00;;;;;;5003686;28;20931;-73
2022/09/29 06:16:15;;;;;;;7.70;5.40;;;8.60;94.00;;;;;;5002813;28;20912;-72
2022/09/29 06:18:40;;;;;;;5.97;5.10;;;8.70;94.40;;;;;;5005143;28;20495;-73
2022/09/29 06:21:12;;;;;;;9.10;4.83;;;8.80;94.30;;;;;;5007099;28;20513;-71
2022/09/29 06:23:38;;;;;;;10.47;5.77;;;8.80;94.20;;;;;;4996347;28;20194;-70
2022/09/29 06:26:06;;;;;;;6.33;4.80;;;8.80;94.30;;;;;;5003038;28;20422;-70
2022/09/29 06:28:32;;;;;;;8.90;5.80;;;8.90;94.30;;;;;;5006775;28;20489;-72
2022/09/29 06:30:59;;;;;;;10.63;6.00;;;9.00;94.40;;;;;;5006108;28;20448;-70
2022/09/29 06:33:26;;;;;;;9.83;5.23;;;9.10;94.10;;;;;;5006733;28;20958;-71
2022/09/29 06:38:37;;;;;;;10.93;5.53;;;9.10;92.80;;;;;;5009053;28;20479;-69
2022/09/29 06:41:02;;;;;;;12.60;6.07;;;9.10;92.70;;;;;;5011476;28;20511;-71
2022/09/29 06:43:28;;;;;;;10.03;5.70;;;9.00;92.90;;;;;;5005892;28;20186;-72
2022/09/29 06:45:53;;;;;;;11.97;6.03;;;9.00;92.70;;;;;;5008241;28;20186;-69
2022/09/29 06:48:19;;;;;;;10.40;6.60;;;8.90;92.80;;;;;;5004884;28;20210;-71
2022/09/29 06:50:44;;;;;;;8.80;5.70;;;8.90;93.00;;;;;;5005258;28;20186;-71
2022/09/29 06:53:10;;;;;;;8.70;6.03;;;8.90;93.10;;;;;;5006665;28;20676;-70
2022/09/29 06:55:35;;;;;;;13.00;5.87;;;9.00;93.20;;;;;;5009503;28;20190;-72
2022/09/29 06:58:01;;;;;;;12.13;5.97;;;9.10;93.20;;;;;;5003315;28;20212;-72
2022/09/29 07:00:27;;;;;;;12.93;5.50;;;9.20;93.20;;;;;;5001659;28;20195;-72
2022/09/29 07:02:53;;;;;;;9.93;5.77;;;9.30;93.10;;;;;;5001181;28;20206;-71
2022/09/29 07:05:19;;;;;;;8.43;5.50;;;9.50;93.00;;;;;;5006656;28;20236;-69
2022/09/29 07:07:47;;;;;;;8.67;6.20;;;9.60;93.00;;;;;;5010015;28;20476;-72
2022/09/29 07:10:12;;;;;;;10.80;6.50;;;9.70;92.60;;;;;;5007005;28;20204;-70
2022/09/29 07:12:38;;;;;;;9.07;5.73;;;9.70;92.30;;;;;;4993113;28;20830;-71
2022/09/29 07:15:04;;;;;;;8.80;5.80;;;9.60;92.10;;;;;;4991716;28;20236;-72
2022/09/29 07:17:30;;;;;;;9.13;6.00;;;9.60;92.20;;;;;;5004784;28;20292;-71
2022/09/29 07:19:56;;;;;;;8.07;5.50;;;9.70;92.20;;;;;;5005488;28;20191;-70
2022/09/29 07:22:22;;;;;;;18.83;6.27;;;9.80;92.10;;;;;;4985655;28;20433;-71
2022/09/29 07:24:49;;;;;;;10.97;6.23;;;10.00;91.90;;;;;;5010293;28;20193;-71
2022/09/29 07:27:18;;;;;;;7.13;4.80;;;10.20;91.60;;;;;;5012121;28;20480;-70
2022/09/29 07:29:43;;;;;;;12.53;4.90;;;10.40;91.40;;;;;;5010788;28;20449;-70
2022/09/29 07:32:09;;;;;;;7.83;4.80;;;10.30;90.80;;;;;;4988374;28;20511;-70
2022/09/29 07:34:34;;;;;;;9.70;5.07;;;10.50;90.80;;;;;;5005402;28;20194;-70
2022/09/29 07:37:00;;;;;;;9.73;5.60;;;10.70;90.20;;;;;;5002483;28;20205;-71
2022/09/29 07:39:25;;;;;;;9.97;5.77;;;10.80;88.70;;;;;;5010819;28;20213;-72
2022/09/29 07:41:51;;;;;;;10.33;5.87;;;10.80;88.40;;;;;;5004153;28;20178;-71
2022/09/29 07:44:17;;;;;;;10.87;6.10;;;10.80;88.40;;;;;;5005599;28;20182;-71
2022/09/29 07:46:42;;;;;;;8.67;6.40;;;10.80;88.60;;;;;;5008272;28;20551;-70
2022/09/29 07:49:08;;;;;;;8.80;5.87;;;10.90;88.40;;;;;;5009250;28;20190;-70
2022/09/29 07:51:33;;;;;;;11.93;5.40;;;10.90;88.00;;;;;;5009234;28;20190;-71
2022/09/29 07:54:03;;;;;;;10.10;7.00;;;10.90;88.10;;;;;;5006620;28;20198;-71
2022/09/29 07:56:29;;;;;;;9.70;6.20;;;10.80;87.80;;;;;;5008132;28;20703;-71
2022/09/29 07:58:55;;;;;;;11.90;7.17;;;10.60;88.30;;;;;;4999965;28;20480;-71
2022/09/29 08:01:21;;;;;;;14.13;6.67;;;10.60;88.70;;;;;;5002916;28;20182;-70
2022/09/29 08:03:55;;;;;;;10.70;6.60;;;10.60;89.00;;;;;;5008179;28;20186;-71
2022/09/29 08:06:22;;;;;;;8.97;5.47;;;10.60;89.00;;;;;;5004837;28;20416;-71
2022/09/29 08:08:48;;;;;;;9.63;5.80;;;10.80;88.90;;;;;;5003820;28;20444;-71
2022/09/29 08:11:16;;;;;;;8.70;5.57;;;11.00;87.60;;;;;;5000607;28;20433;-73
2022/09/29 08:13:42;;;;;;;7.67;6.00;;;11.10;87.00;;;;;;5007167;28;20222;-71
2022/09/29 08:16:11;;;;;;;9.50;5.80;;;11.20;86.90;;;;;;5005107;28;20464;-71
2022/09/29 08:18:37;;;;;;;10.80;5.83;;;11.30;86.50;;;;;;5005878;28;20280;-71
2022/09/29 08:21:04;;;;;;;11.80;5.60;;;11.30;86.30;;;;;;5000059;28;20442;-71
2022/09/29 08:23:33;;;;;;;8.60;5.80;;;11.50;86.80;;;;;;5009920;28;20417;-71
2022/09/29 08:26:05;;;;;;;9.30;5.80;;;11.70;86.00;;;;;;5006510;28;20521;-71
2022/09/29 08:28:32;;;;;;;11.03;5.40;;;11.90;84.70;;;;;;5008516;28;20499;-70
2022/09/29 08:31:02;;;;;;;8.90;4.73;;;12.00;83.80;;;;;;5005163;28;20447;-70
2022/09/29 08:33:28;;;;;;;7.17;4.77;;;12.10;83.30;;;;;;5005818;28;20479;-70
2022/09/29 08:35:56;;;;;;;7.50;5.03;;;12.10;83.40;;;;;;5004786;28;20857;-70
2022/09/29 08:38:22;;;;;;;8.70;5.90;;;12.20;83.60;;;;;;4986616;28;20827;-70
2022/09/29 08:40:48;;;;;;;10.57;6.53;;;12.20;83.30;;;;;;5002081;28;20452;-71
2022/09/29 08:43:15;;;;;;;11.97;5.67;;;12.10;83.00;;;;;;5007484;28;20672;-72
2022/09/29 08:45:48;;;;;;;10.93;6.07;;;11.90;83.40;;;;;;5004145;28;20507;-70
2022/09/29 08:48:22;;;;;;;7.80;5.33;;;11.90;84.00;;;;;;5002857;28;20475;-71
2022/09/29 08:51:27;;;;;;;9.43;5.27;;;12.20;83.80;;;;;;4999636;28;20442;-71
2022/09/29 08:53:56;;;;;;;9.07;5.53;;;12.20;83.00;;;;;;5000727;28;20440;-71
2022/09/29 08:56:24;;;;;;;7.80;4.87;;;12.40;82.80;;;;;;5008136;28;20487;-71
2022/09/29 08:58:50;;;;;;;13.87;7.90;;;12.50;82.70;;;;;;5005311;28;20480;-70
2022/09/29 09:01:37;;;;;;;10.90;5.60;;;12.70;81.70;;;;;;5005566;28;20508;-72
2022/09/29 09:04:18;;;;;;;7.80;5.77;;;12.80;80.60;;;;;;4991188;28;20428;-70
2022/09/29 09:06:58;;;;;;;9.73;5.73;;;12.80;80.00;;;;;;4996112;28;20522;-70
2022/09/29 09:09:40;;;;;;;10.37;5.30;;;12.60;80.80;;;;;;5009222;28;20889;-71
2022/09/29 09:12:32;;;;;;;8.43;5.13;;;12.00;82.40;;;;;;5007894;28;20435;-70
2022/09/29 09:15:32;;;;;;;14.73;4.83;;;11.90;84.00;;;;;;5005278;28;20425;-72
2022/09/29 09:18:14;;;;;;;9.13;4.63;;;11.90;82.80;;;;;;4985458;28;20835;-71
2022/09/29 09:20:50;;;;;;;7.00;4.37;;;11.80;83.40;;;;;;5007398;28;20531;-70
2022/09/29 09:23:38;;;;;;;5.80;4.37;;;12.00;83.40;;;;;;5009069;28;20408;-71
2022/09/29 09:26:04;;;;;;;9.70;4.70;;;12.40;82.20;;;;;;5006016;28;20417;-70
2022/09/29 09:28:33;;;;;;;11.07;5.00;;;12.70;80.80;;;;;;5010329;28;20471;-71
2022/09/29 09:31:11;;;;;;;7.87;4.70;;;12.90;79.90;;;;;;5005910;28;20286;-70
2022/09/29 09:34:06;;;;;;;8.30;4.77;;;12.80;79.30;;;;;;5000254;28;21005;-71
2022/09/29 09:36:41;;;;;;;8.37;4.73;;;12.50;80.80;;;;;;5000894;28;20430;-71
2022/09/29 09:39:19;;;;;;;7.53;4.60;;;12.60;80.80;;;;;;4995782;28;20471;-71
2022/09/29 09:41:48;;;;;;;5.70;4.30;;;12.60;80.30;;;;;;4987478;28;20480;-70
2022/09/29 09:44:16;;;;;;;7.63;4.90;;;12.70;79.70;;;;;;5010508;28;20820;-71
2022/09/29 09:46:54;;;;;;;10.17;4.60;;;12.60;80.20;;;;;;5010106;28;20436;-71
2022/09/29 09:49:31;;;;;;;5.27;4.13;;;12.50;80.50;;;;;;4990197;28;20435;-70
2022/09/29 09:52:08;;;;;;;8.03;5.23;;;12.70;80.80;;;;;;5009016;28;20998;-72
2022/09/29 09:54:56;;;;;;;7.93;4.07;;;12.90;80.50;;;;;;5007264;28;20511;-71
2022/09/29 09:57:56;;;;;;;7.70;5.00;;;13.30;79.60;;;;;;5002612;28;20475;-70
2022/09/29 10:00:26;;;;;;;9.67;4.37;;;13.50;78.00;;;;;;5011023;28;20776;-71
2022/09/29 10:02:54;;;;;;;8.53;4.40;;;13.80;76.40;;;;;;5005707;28;20432;-70
2022/09/29 10:05:23;;;;;;;7.60;4.10;;;13.80;75.80;;;;;;5009104;28;20440;-71
2022/09/29 10:07:50;;;;;;;6.83;4.07;;;13.80;75.90;;;;;;5008178;28;21170;-71
2022/09/29 10:10:22;;;;;;;5.33;3.93;;;13.80;76.10;;;;;;5011538;28;20424;-70
2022/09/29 10:13:07;;;;;;;5.07;3.37;;;13.90;75.90;;;;;;5008533;28;20712;-72
2022/09/29 10:15:41;;;;;;;7.23;3.90;;;14.10;74.80;;;;;;5012233;28;20428;-71
2022/09/29 10:18:18;;;;;;;8.07;4.13;;;14.20;74.20;;;;;;5007287;28;20881;-71
2022/09/29 10:20:44;;;;;;;11.33;4.20;;;14.10;73.20;;;;;;5005880;28;20828;-71
2022/09/29 10:23:25;;;;;;;5.27;3.40;;;14.00;73.20;;;;;;5009234;28;20432;-71
2022/09/29 10:26:14;;;;;;;6.40;3.80;;;14.10;73.60;;;;;;5005322;28;20248;-71
2022/09/29 10:28:48;;;;;;;9.63;3.93;;;14.00;73.30;;;;;;4996543;28;21417;-72
2022/09/29 10:31:22;;;;;;;5.33;3.53;;;13.90;74.20;;;;;;5007423;28;20418;-70
2022/09/29 10:33:51;;;;;;;8.47;3.40;;;14.10;73.90;;;;;;5007844;28;20435;-70
2022/09/29 10:36:20;;;;;;;7.37;4.10;;;14.50;73.30;;;;;;4992428;28;20429;-70
2022/09/29 10:38:49;;;;;;;5.93;3.70;;;14.80;70.80;;;;;;5006150;28;20567;-71
2022/09/29 10:41:15;;;;;;;8.10;3.90;;;14.20;72.90;;;;;;5006626;28;20435;-71
2022/09/29 10:43:43;;;;;;;10.43;4.40;;;14.00;73.90;;;;;;5011350;28;20496;-71
2022/09/29 10:46:35;;;;;;;6.53;4.10;;;13.90;74.50;;;;;;5009398;28;20740;-71
2022/09/29 10:49:16;;;;;;;5.57;4.27;;;13.80;74.80;;;;;;5003080;28;20771;-71
2022/09/29 10:52:03;;;;;;;4.47;3.23;;;14.20;73.70;;;;;;5000093;28;20416;-71
2022/09/29 10:54:33;;;;;;;5.63;3.40;;;14.40;72.30;;;;;;5010664;28;20907;-71
2022/09/29 10:57:09;;;;;;;4.87;3.50;;;14.10;73.60;;;;;;4988705;28;20461;-71
2022/09/29 10:59:44;;;;;;;6.73;3.70;;;14.40;73.30;;;;;;5006092;28;20517;-69
2022/09/29 11:02:31;;;;;;;5.53;3.07;;;14.80;72.30;;;;;;5005656;28;20420;-71
2022/09/29 11:05:00;;;;;;;12.20;3.90;;;14.90;71.60;;;;;;5004756;28;20425;-71
2022/09/29 11:07:26;;;;;;;5.83;3.40;;;15.20;71.10;;;;;;4984416;28;20966;-70
2022/09/29 11:09:53;;;;;;;9.30;3.57;;;15.30;70.70;;;;;;5006089;28;20450;-70
2022/09/29 11:12:32;;;;;;;3.03;2.47;;;15.40;69.80;;;;;;4999560;28;20424;-70
2022/09/29 11:15:05;;;;;;;9.70;3.53;;;15.60;69.40;;;;;;5006114;28;20897;-72
2022/09/29 11:17:37;;;;;;;7.10;2.93;;;15.80;68.30;;;;;;5005101;28;20595;-70
2022/09/29 11:20:09;;;;;;;5.63;2.90;;;15.70;67.60;;;;;;5009394;28;20410;-71
2022/09/29 11:22:56;;;;;;;7.10;3.20;;;15.70;67.90;;;;;;4991595;28;21066;-69
2022/09/29 11:25:56;;;;;;;3.90;2.57;;;15.70;67.30;;;;;;5001256;28;20880;-70
2022/09/29 11:28:59;;;;;;;6.53;3.30;;;15.00;68.90;;;;;;5007340;28;20461;-71
2022/09/29 11:31:43;;;;;;;9.13;3.00;;;14.90;70.10;;;;;;5005665;28;20424;-71
2022/09/29 11:34:36;;;;;;;10.00;3.27;;;15.00;70.50;;;;;;5005999;28;20413;-71
2022/09/29 11:37:22;;;;;;;6.70;2.60;;;15.10;70.20;;;;;;5002515;28;20472;-70
2022/09/29 11:39:56;;;;;;;4.63;2.87;;;15.20;70.50;;;;;;5008824;28;20472;-71
2022/09/29 11:42:38;;;;;;;6.07;3.07;;;14.90;70.70;;;;;;5009107;28;20413;-70
2022/09/29 11:45:09;;;;;;;8.73;3.87;;;15.00;71.30;;;;;;5006554;28;20438;-70
2022/09/29 11:48:00;;;;;;;5.20;2.70;;;14.60;72.10;;;;;;5008338;28;20996;-70
2022/09/29 11:50:37;;;;;;;10.63;3.10;;;14.90;72.00;;;;;;5004994;28;20440;-70
2022/09/29 11:53:25;;;;;;;5.07;2.67;;;15.20;71.40;;;;;;4990159;28;20416;-70
2022/09/29 11:56:11;;;;;;;4.27;2.83;;;15.50;69.80;;;;;;5003273;28;20916;-70
2022/09/29 11:58:45;;;;;;;7.03;3.10;;;15.50;68.80;;;;;;5004170;28;20474;-70
2022/09/29 12:01:25;;;;;;;5.43;3.30;;;15.20;69.40;;;;;;5006995;28;20525;-71
2022/09/29 12:04:18;;;;;;;3.63;2.27;;;15.30;68.90;;;;;;5003843;28;20511;-70
2022/09/29 12:06:57;;;;;;;6.10;2.63;;;15.20;69.40;;;;;;5006795;28;20455;-70
2022/09/29 12:09:53;;;;;;;5.53;2.87;;;15.10;69.70;;;;;;5010157;28;20435;-71
2022/09/29 12:12:25;;;;;;;4.03;2.90;;;14.90;69.80;;;;;;5014584;28;20414;-71
2022/09/29 12:15:16;;;;;;;7.00;2.30;;;14.90;69.80;;;;;;5006617;28;20890;-71
2022/09/29 12:17:47;;;;;;;5.50;2.93;;;15.10;69.90;;;;;;5015441;28;20466;-70
2022/09/29 12:20:28;;;;;;;4.00;2.50;;;15.00;68.50;;;;;;5010503;28;20712;-71
2022/09/29 12:22:59;;;;;;;5.57;2.63;;;15.00;68.60;;;;;;4987697;28;20465;-72
2022/09/29 12:25:28;;;;;;;4.90;2.53;;;15.10;68.50;;;;;;5009027;28;20433;-70
2022/09/29 12:28:01;;;;;;;16.83;3.67;;;15.20;67.60;;;;;;5001959;28;20487;-70
2022/09/29 12:30:29;;;;;;;4.20;2.57;;;15.30;67.30;;;;;;4985051;28;20937;-71
2022/09/29 12:33:07;;;;;;;5.13;2.57;;;15.20;67.00;;;;;;4982631;28;20981;-71
2022/09/29 12:35:49;;;;;;;9.43;2.60;;;15.10;67.50;;;;;;5003469;28;20420;-70
2022/09/29 12:38:24;;;;;;;4.80;2.83;;;15.00;66.90;;;;;;5004803;28;20595;-71
2022/09/29 12:41:15;;;;;;;4.30;2.20;;;15.00;67.20;;;;;;5006968;28;20423;-70
2022/09/29 12:44:01;;;;;;;4.13;2.80;;;15.00;66.10;;;;;;5001199;28;20448;-71
2022/09/29 12:46:34;;;;;;;3.30;2.87;;;15.00;66.40;;;;;;4977675;28;20429;-70
2022/09/29 12:49:21;;;;;;;3.63;2.73;;;14.90;66.60;;;;;;5003606;28;20444;-70
2022/09/29 12:51:51;;;;;;;3.70;2.23;;;14.80;67.90;;;;;;5007211;28;20424;-71
2022/09/29 12:54:34;;;;;;;5.47;2.30;;;14.90;67.50;;;;;;5005362;28;20922;-71
2022/09/29 12:57:04;;;;;;;7.90;2.10;;;15.10;66.30;;;;;;4986031;28;20472;-72
2022/09/29 12:59:54;;;;;;;3.57;2.40;;;15.10;67.00;;;;;;5004472;28;20782;-72
2022/09/29 13:02:32;;;;;;;4.13;2.60;;;15.40;66.00;;;;;;5002363;28;20507;-72
2022/09/29 13:05:33;;;;;;;5.17;3.30;;;15.50;65.30;;;;;;5009077;28;20421;-70
2022/09/29 13:08:24;;;;;;;3.13;2.27;;;15.60;64.80;;;;;;4982745;28;21243;-71
2022/09/29 13:11:03;;;;;;;3.10;2.20;;;15.70;64.20;;;;;;4952499;28;20824;-71
2022/09/29 13:14:26;;;;;;;5.60;3.80;;;15.70;64.10;;;;;;5003902;28;20483;-70
2022/09/29 13:17:15;;;;;;;3.70;2.10;;;15.80;64.20;;;;;;4907333;29;20477;-70
2022/09/29 13:19:46;;;;;;;3.67;2.20;;;15.70;64.10;;;;;;4893313;29;20619;-71
2022/09/29 13:22:41;;;;;;;3.30;2.07;;;15.60;63.70;;;;;;4895832;29;20453;-71